Bedford, Iowa
Current Conditions -  °F | °C
As of 12:35 PM on Sunday 21 Dec 2014 (Local Time) from KICL Reporting Station
Overcast Overcast  
Wind Chill: 32°   Ceiling: 900
Heat Index: 41°   Visibility: 10mi
Dew Point: 39°   Wind: 17mph
Humidity: 93%   Direction: 180°S
Pressure: 29.87"   Gusts: NA
Location:  40.67°N, 94.72°W
Report Text: KICL 211835Z AUTO 18015KT 10SM OVC009 05/04 A2987 RMK AO2
Loading
Personal Weather Stations






























Interactive Weather Map New forecast layout! Learn more

10-Day Weather Forecast

Advertisements
Track Severe Weather on mobile